KEEN/EEN METAR and TAF weather

Enter ICAO airport designator
Station Type Date Time Source
KEEN METAR 2020/07/13 12:56 UTC NOAA

KEEN 131256Z AUTO 00000KT 10SM CLR 24/19 A2978 RMK AO2 SLP086 T02390189 $


Station Type Date Time Source
KEEN Decoded METAR 2020/07/13 12:56 UTC NOAA

Keene, Dillant-Hopkins Airport, NH, United States (KEEN) 42-54N 072-16W
Jul 13, 2020 - 08:56 AM EDT / 2020.07.13 1256 UTC
Wind: Calm:0
Visibility: 10 mile(s):0
Sky conditions: clear
Temperature: 75.0 F (23.9 C)
Dew Point: 66.0 F (18.9 C)
Relative Humidity: 73%
Pressure (altimeter): 29.78 in. Hg (1008 hPa)
ob: KEEN 131256Z AUTO 00000KT 10SM CLR 24/19 A2978 RMK AO2 SLP086 T02390189
cycle: 13

Station Type Date Time Source
KEEN TAF UTC NOAA

Error!

Example: see airport list